VOZ800 YSSY-YMML
Flight info
| Callsign | VOZ800 |
|---|---|
| Flight time | 1h 8m |
| Altitude | 36000 |
| Route | WOL DCT CB DCT BOYSE |
| Aircraft | B738/M-SDE2E3FGHIRWXY/LB1 |
Departure
| Time | 2026-05-07 22:50 |
|---|---|
| Airport | Sydney Kingsford Smith International Airport (YSSY) |
Arrival
| Time | 2026-05-07 23:59 |
|---|---|
| Airport | Melbourne Airport (YMML) |
| Time | Latitude | Longitude | Altitude | Speed | Heading |
|---|---|---|---|---|---|
| 2026-05-07 22:50 | -33.91241 | 151.12374 | 4357 ft | 197 kts | 187° |
| 2026-05-07 22:50 | -33.92576 | 151.12624 | 5251 ft | 200 kts | 164° |
| 2026-05-07 22:50 | -33.93974 | 151.13235 | 5433 ft | 224 kts | 178° |
| 2026-05-07 22:51 | -33.95515 | 151.12791 | 5731 ft | 239 kts | 211° |
| 2026-05-07 22:51 | -33.96953 | 151.11717 | 6407 ft | 246 kts | 211° |
| 2026-05-07 22:51 | -33.98442 | 151.10673 | 7160 ft | 249 kts | 210° |
| 2026-05-07 22:51 | -33.99963 | 151.09674 | 7992 ft | 249 kts | 209° |
| 2026-05-07 22:52 | -34.01505 | 151.08713 | 8784 ft | 251 kts | 209° |
| 2026-05-07 22:52 | -34.03062 | 151.07780 | 9533 ft | 254 kts | 208° |
| 2026-05-07 22:52 | -34.04681 | 151.06841 | 10291 ft | 258 kts | 208° |
| 2026-05-07 22:52 | -34.06368 | 151.05880 | 10499 ft | 280 kts | 208° |
| 2026-05-07 22:53 | -34.08195 | 151.04856 | 10792 ft | 297 kts | 207° |
| 2026-05-07 22:53 | -34.10106 | 151.03802 | 11270 ft | 307 kts | 207° |
| 2026-05-07 22:53 | -34.12040 | 151.02747 | 11941 ft | 310 kts | 207° |
| 2026-05-07 22:53 | -34.13999 | 151.01688 | 12820 ft | 308 kts | 207° |
| 2026-05-07 22:54 | -34.15977 | 151.00621 | 13651 ft | 308 kts | 207° |
| 2026-05-07 22:54 | -34.17916 | 150.99576 | 14383 ft | 310 kts | 207° |
| 2026-05-07 22:54 | -34.19912 | 150.98500 | 15133 ft | 311 kts | 208° |
| 2026-05-07 22:54 | -34.21892 | 150.97434 | 15873 ft | 312 kts | 208° |
| 2026-05-07 22:55 | -34.23884 | 150.96360 | 16607 ft | 315 kts | 208° |
| 2026-05-07 22:55 | -34.25865 | 150.95292 | 17317 ft | 316 kts | 208° |
| 2026-05-07 22:55 | -34.27906 | 150.94193 | 18079 ft | 318 kts | 208° |
| 2026-05-07 22:55 | -34.29936 | 150.93099 | 18721 ft | 322 kts | 208° |
| 2026-05-07 22:56 | -34.31960 | 150.92007 | 19338 ft | 323 kts | 208° |
| 2026-05-07 22:56 | -34.34015 | 150.90898 | 20002 ft | 324 kts | 208° |
| 2026-05-07 22:56 | -34.36077 | 150.89784 | 20625 ft | 325 kts | 207° |
| 2026-05-07 22:56 | -34.38150 | 150.88663 | 21232 ft | 327 kts | 207° |
| 2026-05-07 22:57 | -34.40232 | 150.87538 | 21828 ft | 329 kts | 207° |
| 2026-05-07 22:57 | -34.42328 | 150.86404 | 22429 ft | 331 kts | 207° |
| 2026-05-07 22:57 | -34.44433 | 150.85264 | 23012 ft | 333 kts | 207° |
| 2026-05-07 22:57 | -34.46556 | 150.84115 | 23579 ft | 335 kts | 207° |
| 2026-05-07 22:58 | -34.48686 | 150.82961 | 24097 ft | 336 kts | 207° |
| 2026-05-07 22:58 | -34.50832 | 150.81797 | 24533 ft | 339 kts | 207° |
| 2026-05-07 22:58 | -34.52957 | 150.80557 | 24943 ft | 340 kts | 213° |
| 2026-05-07 22:58 | -34.54854 | 150.78820 | 25333 ft | 343 kts | 221° |
| 2026-05-07 22:59 | -34.56567 | 150.76793 | 25734 ft | 346 kts | 227° |
| 2026-05-07 22:59 | -34.58013 | 150.74445 | 26073 ft | 351 kts | 236° |
| 2026-05-07 22:59 | -34.59242 | 150.71854 | 26375 ft | 357 kts | 238° |
| 2026-05-07 22:59 | -34.60454 | 150.69214 | 26746 ft | 360 kts | 238° |
| 2026-05-07 23:00 | -34.61670 | 150.66542 | 27183 ft | 362 kts | 238° |
| 2026-05-07 23:00 | -34.62890 | 150.63861 | 27591 ft | 364 kts | 239° |
| 2026-05-07 23:00 | -34.64123 | 150.61162 | 27967 ft | 367 kts | 239° |
| 2026-05-07 23:00 | -34.65367 | 150.58446 | 28337 ft | 369 kts | 239° |
| 2026-05-07 23:01 | -34.66620 | 150.55716 | 28705 ft | 372 kts | 239° |
| 2026-05-07 23:01 | -34.67888 | 150.52955 | 29041 ft | 375 kts | 239° |
| 2026-05-07 23:01 | -34.69161 | 150.50186 | 29400 ft | 377 kts | 239° |
| 2026-05-07 23:01 | -34.70445 | 150.47391 | 29709 ft | 379 kts | 239° |
| 2026-05-07 23:02 | -34.71733 | 150.44587 | 30039 ft | 381 kts | 239° |
| 2026-05-07 23:02 | -34.73027 | 150.41768 | 30403 ft | 382 kts | 239° |
| 2026-05-07 23:02 | -34.74316 | 150.38957 | 30820 ft | 380 kts | 240° |
| 2026-05-07 23:02 | -34.75602 | 150.36149 | 31245 ft | 378 kts | 240° |
| 2026-05-07 23:03 | -34.76879 | 150.33362 | 31624 ft | 377 kts | 240° |
| 2026-05-07 23:03 | -34.78153 | 150.30576 | 31958 ft | 377 kts | 240° |
| 2026-05-07 23:03 | -34.79428 | 150.27787 | 32360 ft | 376 kts | 240° |
| 2026-05-07 23:03 | -34.80684 | 150.25038 | 32994 ft | 368 kts | 240° |
| 2026-05-07 23:04 | -34.81924 | 150.22320 | 33352 ft | 368 kts | 240° |
| 2026-05-07 23:04 | -34.83170 | 150.19589 | 33547 ft | 371 kts | 240° |
| 2026-05-07 23:04 | -34.84425 | 150.16838 | 33791 ft | 372 kts | 240° |
| 2026-05-07 23:04 | -34.85675 | 150.14094 | 34187 ft | 369 kts | 241° |
| 2026-05-07 23:05 | -34.86919 | 150.11360 | 34496 ft | 368 kts | 241° |
| 2026-05-07 23:05 | -34.88160 | 150.08630 | 34677 ft | 370 kts | 241° |
| 2026-05-07 23:05 | -34.89410 | 150.05878 | 34864 ft | 372 kts | 241° |
| 2026-05-07 23:05 | -34.90663 | 150.03120 | 35105 ft | 372 kts | 241° |
| 2026-05-07 23:06 | -34.91915 | 150.00360 | 35298 ft | 373 kts | 242° |
| 2026-05-07 23:06 | -34.93174 | 149.97580 | 35491 ft | 376 kts | 242° |
| 2026-05-07 23:06 | -34.94438 | 149.94788 | 35764 ft | 374 kts | 240° |
| 2026-05-07 23:06 | -34.95692 | 149.92016 | 36045 ft | 373 kts | 240° |
| 2026-05-07 23:07 | -34.96949 | 149.89237 | 36167 ft | 376 kts | 240° |
| 2026-05-07 23:07 | -34.99495 | 149.83601 | 36171 ft | 383 kts | 241° |
| 2026-05-07 23:08 | -35.02088 | 149.77848 | 36191 ft | 391 kts | 241° |
| 2026-05-07 23:08 | -35.04726 | 149.71988 | 36187 ft | 397 kts | 241° |
| 2026-05-07 23:09 | -35.07388 | 149.66061 | 36209 ft | 399 kts | 240° |
| 2026-05-07 23:09 | -35.10058 | 149.60107 | 36161 ft | 400 kts | 240° |
| 2026-05-07 23:10 | -35.12712 | 149.54181 | 36185 ft | 401 kts | 240° |
| 2026-05-07 23:10 | -35.15393 | 149.48181 | 36208 ft | 403 kts | 240° |
| 2026-05-07 23:11 | -35.18077 | 149.42165 | 36175 ft | 404 kts | 240° |
| 2026-05-07 23:11 | -35.20764 | 149.36131 | 36191 ft | 404 kts | 240° |
| 2026-05-07 23:12 | -35.23451 | 149.30086 | 36168 ft | 405 kts | 240° |
| 2026-05-07 23:12 | -35.26137 | 149.24034 | 36158 ft | 405 kts | 240° |
| 2026-05-07 23:13 | -35.28933 | 149.18072 | 36151 ft | 403 kts | 234° |
| 2026-05-07 23:13 | -35.32255 | 149.12545 | 36151 ft | 403 kts | 233° |
| 2026-05-07 23:14 | -35.35613 | 149.07057 | 36174 ft | 402 kts | 232° |
| 2026-05-07 23:14 | -35.38949 | 149.01554 | 36166 ft | 402 kts | 233° |
| 2026-05-07 23:15 | -35.42276 | 148.96022 | 36174 ft | 403 kts | 233° |
| 2026-05-07 23:15 | -35.45606 | 148.90462 | 36177 ft | 405 kts | 233° |
| 2026-05-07 23:16 | -35.48936 | 148.84889 | 36178 ft | 406 kts | 233° |
| 2026-05-07 23:16 | -35.52271 | 148.79299 | 36178 ft | 406 kts | 232° |
| 2026-05-07 23:17 | -35.55604 | 148.73703 | 36147 ft | 406 kts | 233° |
| 2026-05-07 23:17 | -35.58935 | 148.68103 | 36179 ft | 406 kts | 233° |
| 2026-05-07 23:18 | -35.62273 | 148.62483 | 36184 ft | 407 kts | 233° |
| 2026-05-07 23:18 | -35.65608 | 148.56857 | 36203 ft | 408 kts | 232° |
| 2026-05-07 23:19 | -35.68950 | 148.51210 | 36197 ft | 408 kts | 232° |
| 2026-05-07 23:19 | -35.72286 | 148.45565 | 36188 ft | 408 kts | 232° |
| 2026-05-07 23:20 | -35.75622 | 148.39909 | 36202 ft | 409 kts | 232° |
| 2026-05-07 23:20 | -35.78964 | 148.34236 | 36230 ft | 410 kts | 232° |
| 2026-05-07 23:21 | -35.82304 | 148.28556 | 36224 ft | 410 kts | 232° |
| 2026-05-07 23:21 | -35.85645 | 148.22865 | 36226 ft | 410 kts | 232° |
| 2026-05-07 23:22 | -35.88984 | 148.17167 | 36214 ft | 410 kts | 232° |
| 2026-05-07 23:22 | -35.92328 | 148.11454 | 36227 ft | 411 kts | 232° |
| 2026-05-07 23:23 | -35.95674 | 148.05724 | 36244 ft | 412 kts | 232° |
| 2026-05-07 23:23 | -35.99019 | 147.99989 | 36232 ft | 411 kts | 232° |
| 2026-05-07 23:24 | -36.01795 | 147.95221 | 36236 ft | 411 kts | 232° |
| 2026-05-07 23:24 | -36.05127 | 147.89490 | 36229 ft | 410 kts | 232° |
| 2026-05-07 23:25 | -36.08477 | 147.83720 | 36237 ft | 410 kts | 232° |
| 2026-05-07 23:25 | -36.11802 | 147.77981 | 36231 ft | 411 kts | 232° |
| 2026-05-07 23:26 | -36.15103 | 147.72276 | 36237 ft | 411 kts | 232° |
| 2026-05-07 23:26 | -36.18428 | 147.66520 | 36231 ft | 411 kts | 232° |
| 2026-05-07 23:27 | -36.23414 | 147.57867 | 36243 ft | 412 kts | 232° |
| 2026-05-07 23:27 | -36.26738 | 147.52087 | 36231 ft | 412 kts | 232° |
| 2026-05-07 23:28 | -36.30063 | 147.46297 | 36243 ft | 412 kts | 232° |
| 2026-05-07 23:28 | -36.33388 | 147.40496 | 36237 ft | 413 kts | 232° |
| 2026-05-07 23:29 | -36.36714 | 147.34683 | 36239 ft | 413 kts | 232° |
| 2026-05-07 23:29 | -36.40036 | 147.28867 | 36238 ft | 413 kts | 232° |
| 2026-05-07 23:30 | -36.43357 | 147.23043 | 36235 ft | 413 kts | 232° |
| 2026-05-07 23:30 | -36.46673 | 147.17219 | 36233 ft | 413 kts | 232° |
| 2026-05-07 23:31 | -36.49989 | 147.11385 | 36222 ft | 413 kts | 232° |
| 2026-05-07 23:31 | -36.53304 | 147.05542 | 36230 ft | 414 kts | 232° |
| 2026-05-07 23:32 | -36.56621 | 146.99684 | 36237 ft | 414 kts | 232° |
| 2026-05-07 23:32 | -36.59937 | 146.93819 | 36235 ft | 415 kts | 232° |
| 2026-05-07 23:33 | -36.63254 | 146.87942 | 36244 ft | 415 kts | 232° |
| 2026-05-07 23:33 | -36.64911 | 146.85003 | 36018 ft | 417 kts | 232° |
| 2026-05-07 23:33 | -36.66573 | 146.82051 | 35541 ft | 412 kts | 232° |
| 2026-05-07 23:34 | -36.68214 | 146.79133 | 34834 ft | 412 kts | 232° |
| 2026-05-07 23:34 | -36.69855 | 146.76213 | 34156 ft | 411 kts | 232° |
| 2026-05-07 23:34 | -36.71495 | 146.73296 | 33360 ft | 411 kts | 232° |
| 2026-05-07 23:34 | -36.73129 | 146.70385 | 32649 ft | 410 kts | 232° |
| 2026-05-07 23:35 | -36.74764 | 146.67470 | 31924 ft | 410 kts | 232° |
| 2026-05-07 23:35 | -36.76395 | 146.64560 | 31172 ft | 410 kts | 232° |
| 2026-05-07 23:35 | -36.78028 | 146.61644 | 30514 ft | 408 kts | 232° |
| 2026-05-07 23:35 | -36.79641 | 146.58757 | 29930 ft | 403 kts | 232° |
| 2026-05-07 23:36 | -36.81232 | 146.55908 | 29391 ft | 397 kts | 232° |
| 2026-05-07 23:36 | -36.82794 | 146.53108 | 28842 ft | 391 kts | 232° |
| 2026-05-07 23:36 | -36.84334 | 146.50345 | 28312 ft | 385 kts | 232° |
| 2026-05-07 23:36 | -36.85854 | 146.47619 | 27799 ft | 380 kts | 232° |
| 2026-05-07 23:37 | -36.87353 | 146.44927 | 27302 ft | 375 kts | 232° |
| 2026-05-07 23:37 | -36.88814 | 146.42303 | 26773 ft | 371 kts | 232° |
| 2026-05-07 23:37 | -36.90280 | 146.39667 | 26271 ft | 368 kts | 232° |
| 2026-05-07 23:37 | -36.91733 | 146.37053 | 25766 ft | 365 kts | 232° |
| 2026-05-07 23:38 | -36.93176 | 146.34457 | 25268 ft | 363 kts | 232° |
| 2026-05-07 23:38 | -36.94610 | 146.31873 | 24779 ft | 360 kts | 232° |
| 2026-05-07 23:38 | -36.96035 | 146.29304 | 24278 ft | 361 kts | 232° |
| 2026-05-07 23:38 | -36.97488 | 146.26686 | 23792 ft | 372 kts | 232° |
| 2026-05-07 23:39 | -36.98969 | 146.24015 | 23212 ft | 374 kts | 232° |
| 2026-05-07 23:39 | -37.00445 | 146.21345 | 22672 ft | 370 kts | 232° |
| 2026-05-07 23:39 | -37.01897 | 146.18715 | 22152 ft | 365 kts | 232° |
| 2026-05-07 23:39 | -37.03329 | 146.16118 | 21651 ft | 360 kts | 232° |
| 2026-05-07 23:40 | -37.04742 | 146.13556 | 21151 ft | 356 kts | 232° |
| 2026-05-07 23:40 | -37.06141 | 146.11018 | 20656 ft | 352 kts | 232° |
| 2026-05-07 23:40 | -37.07523 | 146.08509 | 20173 ft | 349 kts | 232° |
| 2026-05-07 23:40 | -37.08894 | 146.06018 | 19692 ft | 345 kts | 232° |
| 2026-05-07 23:41 | -37.10268 | 146.03521 | 19188 ft | 342 kts | 232° |
| 2026-05-07 23:41 | -37.11597 | 146.01106 | 18728 ft | 340 kts | 232° |
| 2026-05-07 23:41 | -37.12933 | 145.98674 | 18250 ft | 337 kts | 232° |
| 2026-05-07 23:41 | -37.14257 | 145.96261 | 17729 ft | 335 kts | 232° |
| 2026-05-07 23:42 | -37.15568 | 145.93871 | 17267 ft | 329 kts | 232° |
| 2026-05-07 23:42 | -37.16860 | 145.91514 | 16806 ft | 327 kts | 231° |
| 2026-05-07 23:42 | -37.18142 | 145.89174 | 16349 ft | 324 kts | 231° |
| 2026-05-07 23:42 | -37.19414 | 145.86851 | 15877 ft | 322 kts | 231° |
| 2026-05-07 23:43 | -37.20676 | 145.84545 | 15430 ft | 319 kts | 231° |
| 2026-05-07 23:43 | -37.21926 | 145.82259 | 14991 ft | 316 kts | 231° |
| 2026-05-07 23:43 | -37.23168 | 145.79986 | 14552 ft | 314 kts | 231° |
| 2026-05-07 23:43 | -37.24401 | 145.77727 | 14082 ft | 313 kts | 231° |
| 2026-05-07 23:44 | -37.25628 | 145.75478 | 13620 ft | 311 kts | 231° |
| 2026-05-07 23:44 | -37.26849 | 145.73240 | 13178 ft | 309 kts | 231° |
| 2026-05-07 23:44 | -37.28054 | 145.71027 | 12736 ft | 306 kts | 231° |
| 2026-05-07 23:44 | -37.29249 | 145.68832 | 12298 ft | 303 kts | 231° |
| 2026-05-07 23:45 | -37.30432 | 145.66662 | 11869 ft | 300 kts | 230° |
| 2026-05-07 23:45 | -37.31642 | 145.64533 | 11428 ft | 298 kts | 229° |
| 2026-05-07 23:45 | -37.32851 | 145.62447 | 11099 ft | 290 kts | 229° |
| 2026-05-07 23:45 | -37.34006 | 145.60456 | 10991 ft | 275 kts | 229° |
| 2026-05-07 23:46 | -37.35112 | 145.58550 | 10852 ft | 265 kts | 229° |
| 2026-05-07 23:46 | -37.36206 | 145.56665 | 10585 ft | 269 kts | 229° |
| 2026-05-07 23:46 | -37.37322 | 145.54741 | 10411 ft | 271 kts | 229° |
| 2026-05-07 23:46 | -37.38399 | 145.52872 | 10282 ft | 256 kts | 229° |
| 2026-05-07 23:47 | -37.39414 | 145.51106 | 10146 ft | 243 kts | 229° |
| 2026-05-07 23:47 | -37.40386 | 145.49420 | 10051 ft | 234 kts | 229° |
| 2026-05-07 23:47 | -37.41322 | 145.47795 | 9938 ft | 226 kts | 229° |
| 2026-05-07 23:47 | -37.42244 | 145.46197 | 9692 ft | 224 kts | 229° |
| 2026-05-07 23:48 | -37.43154 | 145.44616 | 9413 ft | 223 kts | 229° |
| 2026-05-07 23:48 | -37.44059 | 145.43043 | 9162 ft | 221 kts | 229° |
| 2026-05-07 23:48 | -37.44959 | 145.41478 | 8910 ft | 220 kts | 229° |
| 2026-05-07 23:48 | -37.45862 | 145.39908 | 8681 ft | 224 kts | 229° |
| 2026-05-07 23:49 | -37.46794 | 145.38289 | 8436 ft | 232 kts | 229° |
| 2026-05-07 23:49 | -37.47751 | 145.36622 | 8188 ft | 238 kts | 230° |
| 2026-05-07 23:49 | -37.48730 | 145.34919 | 7909 ft | 242 kts | 230° |
| 2026-05-07 23:49 | -37.49707 | 145.33212 | 7649 ft | 238 kts | 230° |
| 2026-05-07 23:50 | -37.50672 | 145.31525 | 7384 ft | 237 kts | 230° |
| 2026-05-07 23:50 | -37.51632 | 145.29850 | 7130 ft | 235 kts | 231° |
| 2026-05-07 23:50 | -37.52587 | 145.28183 | 6870 ft | 234 kts | 231° |
| 2026-05-07 23:50 | -37.53539 | 145.26516 | 6616 ft | 233 kts | 231° |
| 2026-05-07 23:51 | -37.54484 | 145.24865 | 6348 ft | 232 kts | 231° |
| 2026-05-07 23:51 | -37.55425 | 145.23219 | 6084 ft | 230 kts | 231° |
| 2026-05-07 23:51 | -37.56357 | 145.21587 | 5838 ft | 229 kts | 231° |
| 2026-05-07 23:51 | -37.57281 | 145.19968 | 5585 ft | 227 kts | 231° |
| 2026-05-07 23:52 | -37.58189 | 145.18376 | 5463 ft | 217 kts | 231° |
| 2026-05-07 23:52 | -37.59028 | 145.16902 | 5360 ft | 203 kts | 231° |
| 2026-05-07 23:52 | -37.59836 | 145.15482 | 5243 ft | 190 kts | 231° |
| 2026-05-07 23:52 | -37.60572 | 145.14190 | 5146 ft | 177 kts | 231° |
| 2026-05-07 23:53 | -37.61276 | 145.12955 | 4793 ft | 177 kts | 231° |
| 2026-05-07 23:53 | -37.62004 | 145.11683 | 4396 ft | 180 kts | 231° |
| 2026-05-07 23:53 | -37.62734 | 145.10404 | 4150 ft | 175 kts | 231° |
| 2026-05-07 23:53 | -37.63424 | 145.09194 | 3928 ft | 169 kts | 231° |
| 2026-05-07 23:54 | -37.64099 | 145.08011 | 3738 ft | 163 kts | 231° |
| 2026-05-07 23:54 | -37.64759 | 145.06852 | 3569 ft | 163 kts | 231° |
| 2026-05-07 23:54 | -37.65424 | 145.05686 | 3402 ft | 166 kts | 231° |
| 2026-05-07 23:54 | -37.66106 | 145.04491 | 3220 ft | 169 kts | 231° |
| 2026-05-07 23:55 | -37.66795 | 145.03268 | 3010 ft | 169 kts | 234° |
| 2026-05-07 23:55 | -37.67059 | 145.01858 | 2816 ft | 175 kts | 269° |
| 2026-05-07 23:55 | -37.66924 | 145.00353 | 2627 ft | 171 kts | 259° |
| 2026-05-07 23:55 | -37.66994 | 144.98863 | 2518 ft | 172 kts | 264° |
| 2026-05-07 23:56 | -37.66948 | 144.97325 | 2384 ft | 179 kts | 266° |
| 2026-05-07 23:56 | -37.66869 | 144.95750 | 2144 ft | 180 kts | 267° |
| 2026-05-07 23:56 | -37.66778 | 144.94203 | 1901 ft | 172 kts | 269° |
| 2026-05-07 23:56 | -37.66690 | 144.92754 | 1687 ft | 159 kts | 268° |
| 2026-05-07 23:57 | -37.66611 | 144.91417 | 1464 ft | 148 kts | 268° |
| 2026-05-07 23:57 | -37.66538 | 144.90157 | 1277 ft | 140 kts | 268° |
| 2026-05-07 23:57 | -37.66470 | 144.88960 | 1088 ft | 135 kts | 270° |
| 2026-05-07 23:57 | -37.66399 | 144.87787 | 921 ft | 130 kts | 270° |
| 2026-05-07 23:58 | -37.66339 | 144.86649 | 737 ft | 127 kts | 264° |
| 2026-05-07 23:58 | -37.66273 | 144.85556 | 547 ft | 123 kts | 271° |
| 2026-05-07 23:58 | -37.66210 | 144.84481 | 420 ft | 125 kts | 271° |
| 2026-05-07 23:58 | -37.66153 | 144.83517 | 414 ft | 83 kts | 274° |
| 2026-05-07 23:59 | -37.66141 | 144.83032 | 408 ft | 46 kts | 257° |
| 2026-05-07 23:59 | -37.66250 | 144.82742 | 393 ft | 28 kts | 230° |
| 2026-05-07 23:59 | -37.66416 | 144.82728 | 386 ft | 27 kts | 133° |
| 2026-05-07 23:59 | -37.66456 | 144.82950 | 387 ft | 26 kts | 95° |
| 2026-05-08 00:00 | -37.66468 | 144.83161 | 396 ft | 24 kts | 94° |
| 2026-05-08 00:00 | -37.66479 | 144.83358 | 401 ft | 23 kts | 94° |
| 2026-05-08 00:00 | -37.66490 | 144.83555 | 403 ft | 22 kts | 94° |
| 2026-05-08 00:00 | -37.66502 | 144.83745 | 403 ft | 22 kts | 94° |
| 2026-05-08 00:01 | -37.66530 | 144.83921 | 401 ft | 19 kts | 137° |
| 2026-05-08 00:01 | -37.66663 | 144.83960 | 396 ft | 20 kts | 170° |
| 2026-05-08 00:01 | -37.66716 | 144.84097 | 391 ft | 20 kts | 84° |
| 2026-05-08 00:01 | -37.66694 | 144.84268 | 395 ft | 19 kts | 82° |
| 2026-05-08 00:02 | -37.66674 | 144.84430 | 396 ft | 19 kts | 81° |
| 2026-05-08 00:02 | -37.66656 | 144.84589 | 399 ft | 18 kts | 82° |
| 2026-05-08 00:02 | -37.66639 | 144.84739 | 401 ft | 16 kts | 89° |
| 2026-05-08 00:02 | -37.66713 | 144.84817 | 399 ft | 14 kts | 159° |
| 2026-05-08 00:03 | -37.66769 | 144.84851 | 398 ft | 6 kts | 114° |
| 2026-05-08 00:03 | -37.66761 | 144.84895 | 398 ft | 4 kts | 80° |
| 2026-05-08 00:03 | -37.66759 | 144.84910 | 397 ft | 0 kts | 81° |